Time;durP1;ratioP1;P1;durP2;ratioP2;P2;SDS_P1;SDS_P2;PMS_P1;PMS_P2;Temp;Humidity;BMP_temperature;BMP_pressure;BME280_temperature;BME280_humidity;BME280_pressure;Samples;Min_cycle;Max_cycle;Signal;HPM_P1;HPM_P2
2022/02/16 00:01:45;;;;;;;73.90;5.80;;;;;;;;;;5010513;28;20029;-37
2022/02/16 00:04:12;;;;;;;86.78;6.93;;;;;;;;;;5011339;28;20056;-36
2022/02/16 00:06:39;;;;;;;69.90;6.43;;;;;;;;;;5012711;28;20069;-37
2022/02/16 00:09:06;;;;;;;67.07;8.57;;;;;;;;;;5010339;28;20530;-37
2022/02/16 00:11:33;;;;;;;92.38;8.43;;;;;;;;;;5011845;28;20041;-36
2022/02/16 00:14:00;;;;;;;228.95;16.17;;;;;;;;;;4993982;28;20030;-36
2022/02/16 00:16:27;;;;;;;167.27;14.32;;;;;;;;;;5010970;28;20026;-36
2022/02/16 00:18:54;;;;;;;209.80;13.00;;;;;;;;;;5010585;28;20041;-38
2022/02/16 00:21:21;;;;;;;161.70;13.48;;;;;;;;;;5011212;28;20022;-36
2022/02/16 00:23:48;;;;;;;134.32;11.68;;;;;;;;;;5010245;28;20025;-37
2022/02/16 00:26:16;;;;;;;148.45;12.43;;;;;;;;;;5011312;28;20088;-37
2022/02/16 00:28:43;;;;;;;142.48;10.93;;;;;;;;;;5010963;28;20464;-37
2022/02/16 00:31:10;;;;;;;163.27;14.63;;;;;;;;;;5005376;28;20060;-37
2022/02/16 00:33:37;;;;;;;212.45;17.55;;;;;;;;;;5010319;28;20104;-39
2022/02/16 00:36:04;;;;;;;148.73;12.68;;;;;;;;;;5003842;28;20124;-38
2022/02/16 00:38:31;;;;;;;98.50;10.15;;;;;;;;;;5010363;28;20061;-39
2022/02/16 00:40:59;;;;;;;122.72;11.30;;;;;;;;;;5010910;28;20041;-38
2022/02/16 00:43:26;;;;;;;124.28;11.02;;;;;;;;;;5010856;28;20062;-38
2022/02/16 00:45:53;;;;;;;121.32;11.70;;;;;;;;;;5010399;28;20041;-39
2022/02/16 00:48:20;;;;;;;140.93;12.73;;;;;;;;;;5011863;28;20038;-37
2022/02/16 00:50:47;;;;;;;101.00;10.75;;;;;;;;;;4993515;28;20026;-38
2022/02/16 00:53:14;;;;;;;109.57;9.82;;;;;;;;;;5012031;28;20033;-38
2022/02/16 00:55:41;;;;;;;80.63;7.40;;;;;;;;;;5011545;28;20038;-37
2022/02/16 00:58:08;;;;;;;58.50;7.22;;;;;;;;;;5012234;28;20047;-38
2022/02/16 01:00:36;;;;;;;59.03;7.15;;;;;;;;;;5011331;28;20026;-38
2022/02/16 01:03:03;;;;;;;104.22;10.70;;;;;;;;;;5012121;28;20022;-37
2022/02/16 01:05:30;;;;;;;90.28;8.50;;;;;;;;;;5012129;28;20072;-37
2022/02/16 01:07:57;;;;;;;51.40;6.85;;;;;;;;;;5010785;28;20705;-37
2022/02/16 01:10:24;;;;;;;50.85;6.07;;;;;;;;;;5011593;28;20056;-37
2022/02/16 01:12:51;;;;;;;49.53;7.25;;;;;;;;;;5011416;28;20034;-37
2022/02/16 01:15:18;;;;;;;55.97;7.53;;;;;;;;;;5010488;28;20049;-38
2022/02/16 01:17:45;;;;;;;50.85;6.05;;;;;;;;;;5009881;28;20022;-38
2022/02/16 01:20:12;;;;;;;34.67;5.80;;;;;;;;;;5010513;28;20026;-38
2022/02/16 01:22:39;;;;;;;32.05;5.82;;;;;;;;;;5009828;28;20855;-38
2022/02/16 01:25:06;;;;;;;48.30;6.75;;;;;;;;;;5010615;28;20029;-41
2022/02/16 01:27:33;;;;;;;47.88;7.38;;;;;;;;;;5009754;28;20026;-38
2022/02/16 01:30:00;;;;;;;46.47;6.63;;;;;;;;;;5003168;28;20041;-37
2022/02/16 01:32:27;;;;;;;47.83;6.78;;;;;;;;;;5004809;28;20480;-38
2022/02/16 01:34:54;;;;;;;38.03;5.55;;;;;;;;;;5008681;28;20026;-38
2022/02/16 01:37:22;;;;;;;26.15;4.90;;;;;;;;;;5014538;28;20467;-38
2022/02/16 01:39:49;;;;;;;25.98;5.20;;;;;;;;;;5014836;28;20030;-39
2022/02/16 01:42:16;;;;;;;36.58;5.90;;;;;;;;;;5014083;28;20096;-41
2022/02/16 01:44:44;;;;;;;32.70;5.55;;;;;;;;;;5013998;28;20017;-39
2022/02/16 01:47:11;;;;;;;38.03;5.35;;;;;;;;;;4995014;28;20434;-37
2022/02/16 01:49:40;;;;;;;79.38;7.55;;;;;;;;;;5013318;28;20068;-38
2022/02/16 01:52:08;;;;;;;36.17;5.32;;;;;;;;;;5013419;28;20049;-37
2022/02/16 01:54:35;;;;;;;33.83;4.45;;;;;;;;;;5013943;28;20025;-37
2022/02/16 01:57:03;;;;;;;38.83;4.82;;;;;;;;;;5012769;28;20117;-37
2022/02/16 01:59:31;;;;;;;27.90;4.43;;;;;;;;;;4996072;28;20026;-38
2022/02/16 02:01:58;;;;;;;19.60;4.13;;;;;;;;;;5013376;28;20033;-38
2022/02/16 02:04:25;;;;;;;30.27;4.68;;;;;;;;;;4996196;28;20056;-38
2022/02/16 02:06:52;;;;;;;19.52;4.50;;;;;;;;;;5012582;28;20084;-37
2022/02/16 02:09:19;;;;;;;26.13;4.25;;;;;;;;;;5013793;28;20061;-38
2022/02/16 02:11:46;;;;;;;20.85;3.92;;;;;;;;;;4996289;28;20038;-38
2022/02/16 02:14:14;;;;;;;23.17;4.30;;;;;;;;;;5013710;28;20104;-38
2022/02/16 02:16:42;;;;;;;23.63;3.80;;;;;;;;;;5012050;28;20030;-38
2022/02/16 02:19:10;;;;;;;19.90;3.22;;;;;;;;;;5013659;28;20025;-38
2022/02/16 02:21:37;;;;;;;18.17;3.05;;;;;;;;;;5013440;28;20014;-39
2022/02/16 02:24:05;;;;;;;17.77;3.75;;;;;;;;;;4996258;28;20061;-38
2022/02/16 02:26:32;;;;;;;17.77;3.80;;;;;;;;;;5011777;28;20117;-38
2022/02/16 02:29:01;;;;;;;30.00;4.30;;;;;;;;;;4993832;28;20030;-39
2022/02/16 02:31:29;;;;;;;26.08;3.97;;;;;;;;;;5012462;28;20092;-37
2022/02/16 02:33:56;;;;;;;20.08;4.13;;;;;;;;;;5013101;28;20033;-38
2022/02/16 02:36:23;;;;;;;24.75;3.00;;;;;;;;;;5013401;28;20071;-38
2022/02/16 02:38:50;;;;;;;22.17;3.83;;;;;;;;;;5012478;28;20033;-35
2022/02/16 02:41:17;;;;;;;12.20;2.63;;;;;;;;;;5014933;28;20057;-37
2022/02/16 02:43:45;;;;;;;23.63;3.60;;;;;;;;;;5014518;28;20058;-34
2022/02/16 02:46:12;;;;;;;11.10;3.63;;;;;;;;;;5014148;28;20026;-36
2022/02/16 02:48:39;;;;;;;17.70;3.33;;;;;;;;;;5014571;28;20029;-36
2022/02/16 02:51:06;;;;;;;14.07;2.88;;;;;;;;;;5015266;28;20057;-35
2022/02/16 02:53:34;;;;;;;13.25;3.47;;;;;;;;;;5014985;28;20034;-35
2022/02/16 02:56:02;;;;;;;21.77;3.20;;;;;;;;;;5015309;28;20061;-36
2022/02/16 02:58:29;;;;;;;7.88;2.63;;;;;;;;;;5014856;28;20665;-36
2022/02/16 03:00:57;;;;;;;14.90;2.75;;;;;;;;;;5014796;28;20044;-36
2022/02/16 03:03:24;;;;;;;15.10;2.83;;;;;;;;;;5014726;28;20029;-36
2022/02/16 03:05:51;;;;;;;18.42;2.97;;;;;;;;;;5015410;28;20076;-37
2022/02/16 03:08:17;;;;;;;22.10;3.40;;;;;;;;;;5015102;28;20037;-37
2022/02/16 03:10:44;;;;;;;17.33;3.38;;;;;;;;;;5014170;28;20515;-35
2022/02/16 03:13:21;;;;;;;24.38;5.18;;;;;;;;;;5015099;28;20037;-35
2022/02/16 03:15:49;;;;;;;31.10;4.38;;;;;;;;;;5014561;28;20105;-35
2022/02/16 03:18:16;;;;;;;41.70;5.50;;;;;;;;;;5015043;28;20018;-36
2022/02/16 03:20:45;;;;;;;28.73;5.15;;;;;;;;;;5014131;28;20129;-36
2022/02/16 03:23:12;;;;;;;35.08;4.90;;;;;;;;;;5013563;28;20507;-36
2022/02/16 03:25:39;;;;;;;44.95;6.25;;;;;;;;;;5014469;28;20081;-36
2022/02/16 03:28:07;;;;;;;40.10;5.68;;;;;;;;;;5014748;28;20101;-36
2022/02/16 03:30:34;;;;;;;51.15;6.65;;;;;;;;;;5013786;28;20034;-36
2022/02/16 03:33:04;;;;;;;49.72;6.25;;;;;;;;;;5014592;28;20092;-37
2022/02/16 03:35:32;;;;;;;56.80;6.57;;;;;;;;;;5014163;28;20029;-37
2022/02/16 03:37:59;;;;;;;48.88;5.75;;;;;;;;;;5014594;28;20030;-37
2022/02/16 03:40:26;;;;;;;22.00;4.95;;;;;;;;;;5012743;28;20026;-36
2022/02/16 03:42:53;;;;;;;30.83;4.18;;;;;;;;;;5014076;28;20128;-36
2022/02/16 03:45:20;;;;;;;28.42;4.22;;;;;;;;;;5013957;28;20029;-36
2022/02/16 03:47:47;;;;;;;24.10;4.20;;;;;;;;;;5014516;28;20054;-36
2022/02/16 03:50:14;;;;;;;23.20;4.35;;;;;;;;;;5013760;28;20180;-36
2022/02/16 03:52:41;;;;;;;17.88;4.43;;;;;;;;;;5014162;28;20025;-37
2022/02/16 03:55:09;;;;;;;15.45;3.67;;;;;;;;;;5014285;28;20026;-37
2022/02/16 03:57:36;;;;;;;15.82;3.90;;;;;;;;;;5013515;28;20112;-37
2022/02/16 04:00:04;;;;;;;21.77;3.78;;;;;;;;;;5013972;28;20038;-37
2022/02/16 04:02:31;;;;;;;33.60;4.47;;;;;;;;;;5013541;28;20038;-37
2022/02/16 04:04:58;;;;;;;23.65;3.85;;;;;;;;;;5014008;28;20049;-38
2022/02/16 04:07:26;;;;;;;19.85;3.45;;;;;;;;;;5013591;28;20037;-37
2022/02/16 04:09:52;;;;;;;23.25;3.90;;;;;;;;;;5014002;28;20101;-36
2022/02/16 04:12:20;;;;;;;22.17;3.47;;;;;;;;;;5013328;28;20040;-37
2022/02/16 04:14:46;;;;;;;16.88;3.38;;;;;;;;;;5013856;28;20101;-38
2022/02/16 04:17:14;;;;;;;16.75;3.70;;;;;;;;;;5013445;28;20508;-36
2022/02/16 04:19:41;;;;;;;22.92;3.55;;;;;;;;;;5013928;28;20033;-38
2022/02/16 04:22:08;;;;;;;18.40;3.05;;;;;;;;;;5012371;28;20026;-36
2022/02/16 04:24:34;;;;;;;14.13;3.10;;;;;;;;;;5013093;28;20373;-38
2022/02/16 04:27:01;;;;;;;11.52;3.00;;;;;;;;;;5012368;28;20441;-37
2022/02/16 04:29:28;;;;;;;14.50;3.10;;;;;;;;;;5013118;28;20064;-36
2022/02/16 04:31:55;;;;;;;12.50;2.63;;;;;;;;;;5011972;28;20407;-37
2022/02/16 04:34:22;;;;;;;15.57;3.00;;;;;;;;;;5012870;28;20056;-36
2022/02/16 04:36:49;;;;;;;8.35;3.10;;;;;;;;;;5012803;28;20109;-37
2022/02/16 04:39:16;;;;;;;13.55;2.80;;;;;;;;;;5012297;28;20117;-37
2022/02/16 04:41:44;;;;;;;19.15;3.10;;;;;;;;;;5012282;28;20377;-38
2022/02/16 04:44:11;;;;;;;7.07;2.58;;;;;;;;;;5012182;28;20431;-37
2022/02/16 04:46:38;;;;;;;7.22;2.83;;;;;;;;;;5003039;28;20485;-36
2022/02/16 04:49:05;;;;;;;10.07;3.10;;;;;;;;;;5009540;28;20022;-36
2022/02/16 04:51:32;;;;;;;7.28;2.63;;;;;;;;;;5012367;28;20523;-37
2022/02/16 04:53:59;;;;;;;10.88;2.83;;;;;;;;;;5012076;28;20021;-37
2022/02/16 04:56:26;;;;;;;11.55;2.33;;;;;;;;;;5010013;28;20029;-36
2022/02/16 04:58:53;;;;;;;9.10;2.75;;;;;;;;;;5011926;28;20032;-36
2022/02/16 05:01:20;;;;;;;6.43;2.63;;;;;;;;;;5012098;28;20079;-38
2022/02/16 05:03:48;;;;;;;13.48;2.88;;;;;;;;;;5012029;28;20060;-36
2022/02/16 05:06:15;;;;;;;9.73;2.70;;;;;;;;;;5012444;28;20029;-36
2022/02/16 05:08:42;;;;;;;6.72;2.40;;;;;;;;;;5010961;28;20032;-36
2022/02/16 05:11:09;;;;;;;7.25;3.00;;;;;;;;;;5012005;28;20040;-37
2022/02/16 05:13:36;;;;;;;9.85;2.92;;;;;;;;;;5011840;28;20511;-36
2022/02/16 05:16:03;;;;;;;8.93;2.55;;;;;;;;;;5012257;28;20026;-36
2022/02/16 05:18:33;;;;;;;22.38;4.32;;;;;;;;;;5012813;28;20125;-36
2022/02/16 05:21:00;;;;;;;15.45;3.60;;;;;;;;;;5012275;28;20034;-36
2022/02/16 05:23:28;;;;;;;28.90;3.67;;;;;;;;;;4995474;28;20026;-36
2022/02/16 05:25:55;;;;;;;15.32;3.08;;;;;;;;;;5012293;28;20380;-37
2022/02/16 05:28:23;;;;;;;18.63;3.10;;;;;;;;;;5012821;28;20121;-37
2022/02/16 05:30:50;;;;;;;14.75;3.22;;;;;;;;;;5012128;28;20065;-36
2022/02/16 05:33:17;;;;;;;15.93;3.17;;;;;;;;;;5012630;28;20022;-37
2022/02/16 05:35:45;;;;;;;16.95;3.35;;;;;;;;;;5011295;28;20380;-36
2022/02/16 05:38:12;;;;;;;19.27;3.58;;;;;;;;;;5009375;28;20034;-37
2022/02/16 05:40:39;;;;;;;19.05;3.50;;;;;;;;;;5011368;28;20030;-36
2022/02/16 05:43:08;;;;;;;10.90;2.90;;;;;;;;;;5011648;28;20524;-36
2022/02/16 05:45:35;;;;;;;11.68;3.10;;;;;;;;;;5009081;28;20026;-37
2022/02/16 05:48:02;;;;;;;7.05;2.95;;;;;;;;;;5012178;28;20037;-36
2022/02/16 05:50:29;;;;;;;12.70;2.72;;;;;;;;;;5011180;28;20044;-38
2022/02/16 05:52:56;;;;;;;9.68;3.13;;;;;;;;;;5011526;28;20034;-36
2022/02/16 05:55:23;;;;;;;8.55;2.60;;;;;;;;;;5012242;28;20583;-37
2022/02/16 05:57:49;;;;;;;7.80;3.15;;;;;;;;;;5012384;28;20026;-37
2022/02/16 06:00:17;;;;;;;11.70;2.67;;;;;;;;;;5012813;28;20080;-37
2022/02/16 06:02:44;;;;;;;7.90;3.10;;;;;;;;;;5012035;28;20038;-37
2022/02/16 06:05:11;;;;;;;11.52;2.55;;;;;;;;;;5012687;28;20037;-37
2022/02/16 06:07:38;;;;;;;9.50;2.70;;;;;;;;;;5012184;28;20109;-36
2022/02/16 06:10:05;;;;;;;10.30;2.92;;;;;;;;;;5012599;28;20025;-35
2022/02/16 06:12:32;;;;;;;8.77;2.75;;;;;;;;;;5011617;28;20140;-35
2022/02/16 06:14:59;;;;;;;15.00;3.28;;;;;;;;;;5012409;28;20036;-35
2022/02/16 06:17:26;;;;;;;7.57;2.75;;;;;;;;;;5012121;28;20089;-37
2022/02/16 06:19:53;;;;;;;6.10;2.67;;;;;;;;;;5014318;28;20030;-37
2022/02/16 06:22:20;;;;;;;14.25;2.90;;;;;;;;;;5015302;28;20057;-35
2022/02/16 06:24:47;;;;;;;7.13;3.10;;;;;;;;;;5015966;28;20081;-35
2022/02/16 06:27:14;;;;;;;12.73;3.33;;;;;;;;;;5015469;28;20028;-37
2022/02/16 06:29:41;;;;;;;13.88;2.90;;;;;;;;;;5015946;28;20076;-36
2022/02/16 06:32:08;;;;;;;12.95;2.80;;;;;;;;;;5015234;28;20044;-35
2022/02/16 06:34:35;;;;;;;9.90;2.70;;;;;;;;;;5015688;28;20022;-35
2022/02/16 06:37:02;;;;;;;15.43;3.30;;;;;;;;;;5015253;28;20117;-35
2022/02/16 06:39:29;;;;;;;13.80;3.00;;;;;;;;;;5015749;28;20500;-35
2022/02/16 06:41:56;;;;;;;9.98;3.20;;;;;;;;;;5015475;28;20037;-35
2022/02/16 06:44:23;;;;;;;12.20;3.35;;;;;;;;;;5015006;28;20038;-36
2022/02/16 06:46:50;;;;;;;13.30;2.83;;;;;;;;;;5015645;28;20026;-35
2022/02/16 06:49:17;;;;;;;13.10;3.42;;;;;;;;;;5015173;28;20021;-36
2022/02/16 06:51:44;;;;;;;12.73;2.95;;;;;;;;;;5015435;28;20373;-37
2022/02/16 06:54:11;;;;;;;13.85;2.97;;;;;;;;;;5014940;28;20018;-36
2022/02/16 06:56:44;;;;;;;11.50;3.38;;;;;;;;;;5015435;28;20483;-35
2022/02/16 06:59:11;;;;;;;13.18;3.03;;;;;;;;;;5015003;28;20026;-35
2022/02/16 07:01:38;;;;;;;17.13;3.22;;;;;;;;;;5015217;28;20096;-36
2022/02/16 07:04:05;;;;;;;14.68;2.88;;;;;;;;;;5014649;28;20029;-36
2022/02/16 07:06:33;;;;;;;11.25;3.15;;;;;;;;;;5015303;28;20026;-37
2022/02/16 07:09:00;;;;;;;14.00;2.83;;;;;;;;;;5014649;28;20080;-35
2022/02/16 07:11:27;;;;;;;18.52;3.17;;;;;;;;;;5015042;28;20034;-35
2022/02/16 07:13:54;;;;;;;16.85;3.38;;;;;;;;;;5014440;28;20026;-35
2022/02/16 07:16:21;;;;;;;12.32;3.20;;;;;;;;;;5015140;28;20053;-36
2022/02/16 07:18:48;;;;;;;16.45;3.35;;;;;;;;;;5014463;28;20017;-36
2022/02/16 07:21:15;;;;;;;14.52;2.88;;;;;;;;;;5014827;28;20030;-36
2022/02/16 07:23:46;;;;;;;14.68;3.30;;;;;;;;;;5014755;28;20022;-37
2022/02/16 07:26:13;;;;;;;12.13;3.13;;;;;;;;;;5014557;28;20176;-36
2022/02/16 07:28:40;;;;;;;17.20;3.38;;;;;;;;;;5014657;28;20025;-36
2022/02/16 07:31:07;;;;;;;17.10;3.20;;;;;;;;;;5013355;28;20128;-36
2022/02/16 07:33:34;;;;;;;17.05;2.72;;;;;;;;;;5014555;28;20040;-36
2022/02/16 07:36:02;;;;;;;18.70;3.05;;;;;;;;;;5014261;28;20022;-37
2022/02/16 07:38:29;;;;;;;15.70;3.22;;;;;;;;;;5014761;28;20042;-37
2022/02/16 07:40:59;;;;;;;12.30;3.13;;;;;;;;;;5013858;28;20077;-36
2022/02/16 07:43:26;;;;;;;11.55;2.65;;;;;;;;;;5014147;28;20404;-37
2022/02/16 07:45:54;;;;;;;23.67;2.97;;;;;;;;;;5014078;28;20041;-37
2022/02/16 07:48:21;;;;;;;18.02;3.25;;;;;;;;;;5014526;28;20021;-37
2022/02/16 07:50:48;;;;;;;13.60;2.83;;;;;;;;;;5013681;28;20026;-37
2022/02/16 07:53:16;;;;;;;21.83;3.25;;;;;;;;;;5014381;28;20026;-37
2022/02/16 07:55:43;;;;;;;26.20;3.25;;;;;;;;;;5013522;28;20037;-36
2022/02/16 07:58:10;;;;;;;16.90;2.70;;;;;;;;;;5014343;28;20117;-36
2022/02/16 08:00:38;;;;;;;12.07;3.30;;;;;;;;;;5013581;28;20073;-35
2022/02/16 08:03:08;;;;;;;22.58;3.92;;;;;;;;;;5014257;28;20096;-35
2022/02/16 08:05:36;;;;;;;24.02;4.30;;;;;;;;;;5013484;28;20110;-35
2022/02/16 08:08:03;;;;;;;25.48;4.60;;;;;;;;;;5014187;28;20030;-35
2022/02/16 08:10:30;;;;;;;25.23;5.15;;;;;;;;;;5014098;28;20014;-37
2022/02/16 08:12:58;;;;;;;24.55;5.55;;;;;;;;;;5013454;28;20033;-36
2022/02/16 08:15:25;;;;;;;20.75;5.40;;;;;;;;;;5013845;28;20033;-37
2022/02/16 08:17:53;;;;;;;17.25;5.22;;;;;;;;;;5013521;28;20388;-35
2022/02/16 08:20:20;;;;;;;20.83;5.28;;;;;;;;;;5013818;28;20021;-35
2022/02/16 08:22:47;;;;;;;20.55;4.55;;;;;;;;;;5013281;28;20022;-36
2022/02/16 08:25:15;;;;;;;24.17;4.85;;;;;;;;;;5013695;28;20022;-35
2022/02/16 08:27:45;;;;;;;16.75;4.82;;;;;;;;;;5013263;28;20033;-35
2022/02/16 08:30:13;;;;;;;20.42;5.43;;;;;;;;;;5013831;28;20550;-35
2022/02/16 08:32:40;;;;;;;20.75;5.95;;;;;;;;;;5012998;28;20037;-35
2022/02/16 08:35:08;;;;;;;25.13;5.15;;;;;;;;;;5013485;28;20096;-35
2022/02/16 08:37:35;;;;;;;20.38;5.40;;;;;;;;;;5013088;28;20044;-35
2022/02/16 08:40:04;;;;;;;27.55;5.57;;;;;;;;;;5013471;28;20065;-36
2022/02/16 08:42:31;;;;;;;23.00;5.18;;;;;;;;;;5012173;28;20069;-36
2022/02/16 08:44:58;;;;;;;20.42;5.65;;;;;;;;;;5013040;28;20037;-36
2022/02/16 08:47:26;;;;;;;19.05;5.50;;;;;;;;;;5012910;28;20037;-36
2022/02/16 08:49:53;;;;;;;22.48;5.70;;;;;;;;;;5013478;28;20025;-37
2022/02/16 08:52:20;;;;;;;21.98;5.75;;;;;;;;;;5013287;28;20037;-36
2022/02/16 08:54:47;;;;;;;23.10;5.38;;;;;;;;;;5012572;28;20026;-37
2022/02/16 08:57:14;;;;;;;17.27;5.03;;;;;;;;;;5013237;28;20032;-35
2022/02/16 08:59:42;;;;;;;18.20;4.88;;;;;;;;;;5012718;28;20373;-35
2022/02/16 09:02:09;;;;;;;20.25;5.35;;;;;;;;;;5013156;28;20029;-36
2022/02/16 09:04:36;;;;;;;17.83;5.97;;;;;;;;;;5012740;28;20488;-37
2022/02/16 09:07:49;;;;;;;27.85;5.82;;;;;;;;;;5012941;28;20030;-37
2022/02/16 09:09:50;;;;;;;30.67;6.03;;;;;;;;;;5005250;28;20065;-37
2022/02/16 09:12:17;;;;;;;45.22;6.88;;;;;;;;;;5012814;28;20038;-36
2022/02/16 09:14:44;;;;;;;50.38;7.75;;;;;;;;;;5012365;28;20049;-37
2022/02/16 09:17:11;;;;;;;50.28;7.22;;;;;;;;;;5012856;28;20026;-36
2022/02/16 09:19:39;;;;;;;38.38;7.38;;;;;;;;;;5012485;28;20388;-35
2022/02/16 09:22:06;;;;;;;38.65;6.72;;;;;;;;;;5012872;28;20634;-35
2022/02/16 09:24:33;;;;;;;27.05;6.15;;;;;;;;;;5012447;28;20033;-35
2022/02/16 09:27:00;;;;;;;34.10;6.75;;;;;;;;;;5012561;28;20037;-35
2022/02/16 09:29:27;;;;;;;34.80;6.43;;;;;;;;;;5012323;28;20404;-36
2022/02/16 09:31:54;;;;;;;49.60;7.50;;;;;;;;;;5012614;28;20042;-36
2022/02/16 09:34:22;;;;;;;37.83;7.32;;;;;;;;;;5012406;28;20105;-36
2022/02/16 09:36:49;;;;;;;59.50;7.88;;;;;;;;;;5012409;28;20037;-36
2022/02/16 09:39:16;;;;;;;58.70;7.43;;;;;;;;;;5012535;28;20036;-36
2022/02/16 09:41:44;;;;;;;224.27;19.17;;;;;;;;;;5012316;28;20036;-37
2022/02/16 09:44:15;;;;;;;337.92;27.67;;;;;;;;;;5012736;28;20026;-37
2022/02/16 09:46:42;;;;;;;89.10;10.60;;;;;;;;;;5011361;28;20052;-35
2022/02/16 09:49:12;;;;;;;63.92;9.65;;;;;;;;;;5012706;28;20034;-35
2022/02/16 09:51:40;;;;;;;272.33;23.95;;;;;;;;;;5011737;28;20492;-36
2022/02/16 09:54:07;;;;;;;74.22;9.88;;;;;;;;;;5013090;28;20026;-36
2022/02/16 09:56:34;;;;;;;61.80;9.45;;;;;;;;;;5015789;28;20392;-35
2022/02/16 09:59:02;;;;;;;63.55;8.43;;;;;;;;;;5016334;28;20134;-35
2022/02/16 10:01:29;;;;;;;174.73;15.30;;;;;;;;;;5015209;28;20112;-37
2022/02/16 10:04:04;;;;;;;80.50;8.70;;;;;;;;;;5015756;28;20030;-35
2022/02/16 10:06:49;;;;;;;68.35;8.55;;;;;;;;;;5015061;28;20026;-37
2022/02/16 10:09:27;;;;;;;185.95;16.63;;;;;;;;;;5014107;28;20417;-35
2022/02/16 10:11:55;;;;;;;149.80;14.85;;;;;;;;;;5015579;28;20038;-36
2022/02/16 10:14:25;;;;;;;158.43;13.40;;;;;;;;;;5016163;28;20034;-37
2022/02/16 10:16:52;;;;;;;101.15;10.00;;;;;;;;;;5015340;28;20076;-36
2022/02/16 10:19:20;;;;;;;52.47;6.50;;;;;;;;;;5016162;28;20103;-36
2022/02/16 10:22:07;;;;;;;145.63;13.02;;;;;;;;;;5015477;28;20083;-36
2022/02/16 10:24:35;;;;;;;54.17;6.72;;;;;;;;;;4998334;28;20069;-35
2022/02/16 10:27:03;;;;;;;49.83;5.88;;;;;;;;;;5015184;28;20041;-36
2022/02/16 10:29:32;;;;;;;50.50;5.30;;;;;;;;;;5015977;28;20026;-37
2022/02/16 10:32:00;;;;;;;44.88;5.32;;;;;;;;;;5015364;28;20057;-35
2022/02/16 10:34:44;;;;;;;48.97;5.38;;;;;;;;;;5015887;28;20049;-35
2022/02/16 10:37:12;;;;;;;35.58;3.63;;;;;;;;;;5015151;28;20030;-35
2022/02/16 10:39:40;;;;;;;15.40;2.58;;;;;;;;;;5015724;28;20500;-36
2022/02/16 10:42:13;;;;;;;30.40;3.75;;;;;;;;;;5015010;28;20057;-36
2022/02/16 10:44:40;;;;;;;32.60;3.20;;;;;;;;;;4997921;28;20390;-36
2022/02/16 10:47:09;;;;;;;18.05;3.15;;;;;;;;;;5014856;28;20037;-35
2022/02/16 10:49:37;;;;;;;23.67;3.33;;;;;;;;;;5015609;28;20480;-36
2022/02/16 10:52:05;;;;;;;14.35;3.13;;;;;;;;;;4997811;28;20038;-36
2022/02/16 10:54:33;;;;;;;29.77;3.70;;;;;;;;;;5015023;28;20059;-35
2022/02/16 10:57:00;;;;;;;21.55;2.95;;;;;;;;;;5015177;28;20050;-35
2022/02/16 10:59:27;;;;;;;18.08;3.22;;;;;;;;;;5014924;28;20040;-35
2022/02/16 11:01:54;;;;;;;40.47;4.78;;;;;;;;;;5015261;28;20377;-35
2022/02/16 11:04:22;;;;;;;42.42;5.05;;;;;;;;;;5014830;28;20365;-35
2022/02/16 11:06:50;;;;;;;45.35;4.72;;;;;;;;;;5013872;28;20104;-35
2022/02/16 11:09:19;;;;;;;29.83;3.10;;;;;;;;;;5014707;28;20056;-36
2022/02/16 11:11:47;;;;;;;14.50;3.58;;;;;;;;;;5014936;28;20033;-36
2022/02/16 11:14:14;;;;;;;14.48;2.72;;;;;;;;;;5014665;28;20032;-36
2022/02/16 11:16:41;;;;;;;16.75;3.13;;;;;;;;;;5014901;28;20053;-35
2022/02/16 11:19:23;;;;;;;82.03;8.18;;;;;;;;;;5014236;28;20022;-35
2022/02/16 11:22:06;;;;;;;51.83;5.82;;;;;;;;;;5014209;28;20040;-36
2022/02/16 11:24:35;;;;;;;34.30;3.50;;;;;;;;;;5014215;28;20099;-36
2022/02/16 11:27:20;;;;;;;20.60;2.90;;;;;;;;;;5014553;28;20030;-36
2022/02/16 11:29:48;;;;;;;23.85;3.08;;;;;;;;;;5008862;28;20026;-35
2022/02/16 11:32:22;;;;;;;31.17;3.47;;;;;;;;;;5012591;28;20183;-36
2022/02/16 11:35:07;;;;;;;13.10;3.00;;;;;;;;;;5013796;28;20038;-36
2022/02/16 11:37:35;;;;;;;15.70;2.67;;;;;;;;;;5014207;28;20109;-36
2022/02/16 11:40:03;;;;;;;20.77;2.47;;;;;;;;;;5013915;28;20100;-36
2022/02/16 11:42:48;;;;;;;27.17;2.20;;;;;;;;;;5012799;28;20137;-35
2022/02/16 11:45:20;;;;;;;21.50;2.15;;;;;;;;;;5014428;28;20435;-36
2022/02/16 11:47:47;;;;;;;11.68;2.10;;;;;;;;;;5013575;28;20508;-36
2022/02/16 11:50:17;;;;;;;16.23;2.00;;;;;;;;;;5013650;28;20065;-35
2022/02/16 11:52:50;;;;;;;25.45;2.95;;;;;;;;;;5012924;28;20080;-36
2022/02/16 11:55:30;;;;;;;27.80;2.88;;;;;;;;;;5013106;28;20030;-37
2022/02/16 11:57:58;;;;;;;27.50;2.55;;;;;;;;;;5014148;28;20496;-36
2022/02/16 12:00:27;;;;;;;50.05;4.75;;;;;;;;;;5013073;28;20030;-36
2022/02/16 12:03:02;;;;;;;42.30;4.10;;;;;;;;;;4993702;28;20121;-35
2022/02/16 12:05:51;;;;;;;35.08;3.28;;;;;;;;;;5013430;28;20045;-37
2022/02/16 12:08:37;;;;;;;38.08;3.70;;;;;;;;;;5006338;28;20065;-36
2022/02/16 12:11:28;;;;;;;34.67;4.30;;;;;;;;;;5009341;28;20145;-36
2022/02/16 12:14:13;;;;;;;34.90;4.40;;;;;;;;;;5011503;28;20507;-37
2022/02/16 12:16:44;;;;;;;42.40;5.30;;;;;;;;;;5013261;28;20444;-37
2022/02/16 12:19:16;;;;;;;62.33;4.70;;;;;;;;;;5012588;28;20036;-37
2022/02/16 12:21:44;;;;;;;20.93;2.60;;;;;;;;;;5012435;28;20505;-38
2022/02/16 12:24:12;;;;;;;17.52;2.40;;;;;;;;;;5010850;28;20115;-38
2022/02/16 12:26:44;;;;;;;23.15;2.63;;;;;;;;;;5010661;28;20026;-38
2022/02/16 12:29:17;;;;;;;23.25;2.88;;;;;;;;;;5009561;28;20038;-38
2022/02/16 12:31:46;;;;;;;21.13;2.70;;;;;;;;;;5012200;28;20037;-38
2022/02/16 12:34:15;;;;;;;33.15;3.75;;;;;;;;;;5011901;28;20036;-38
2022/02/16 12:36:46;;;;;;;32.83;3.55;;;;;;;;;;5011184;28;20475;-37
2022/02/16 12:39:13;;;;;;;32.58;3.50;;;;;;;;;;5012631;28;20038;-36
2022/02/16 12:41:42;;;;;;;27.63;2.90;;;;;;;;;;5012928;28;20030;-35
2022/02/16 12:44:11;;;;;;;52.38;5.10;;;;;;;;;;5008604;28;20502;-39
2022/02/16 12:46:51;;;;;;;39.60;4.10;;;;;;;;;;4994589;28;20030;-35
2022/02/16 12:49:25;;;;;;;73.30;6.13;;;;;;;;;;5009264;28;20550;-36
2022/02/16 12:51:53;;;;;;;40.67;3.80;;;;;;;;;;5011614;28;20034;-36
2022/02/16 12:54:22;;;;;;;91.68;7.68;;;;;;;;;;5009631;28;20037;-36
2022/02/16 12:57:08;;;;;;;81.80;7.53;;;;;;;;;;5011999;28;20026;-38
2022/02/16 13:02:28;;;;;;;60.55;4.85;;;;;;;;;;4992667;28;20062;-37
2022/02/16 13:05:06;;;;;;;28.08;3.45;;;;;;;;;;5012215;28;20506;-39
2022/02/16 13:07:33;;;;;;;73.72;5.25;;;;;;;;;;5020556;22;20061;-34
2022/02/16 13:10:02;;;;;;;64.68;4.47;;;;;;;;;;5011727;28;20034;-34
2022/02/16 13:12:35;;;;;;;70.78;5.60;;;;;;;;;;5011533;28;20068;-33
2022/02/16 13:15:04;;;;;;;147.85;11.27;;;;;;;;;;5012399;28;20033;-34
2022/02/16 13:17:32;;;;;;;138.02;10.00;;;;;;;;;;5012195;28;20479;-32
2022/02/16 13:19:59;;;;;;;106.32;8.80;;;;;;;;;;5011632;28;20424;-32
2022/02/16 13:22:27;;;;;;;105.78;6.85;;;;;;;;;;5012184;28;20021;-32
2022/02/16 13:25:01;;;;;;;89.70;6.43;;;;;;;;;;5011832;28;20042;-32
2022/02/16 13:27:43;;;;;;;143.50;11.60;;;;;;;;;;4992670;28;20023;-33
2022/02/16 13:30:11;;;;;;;115.13;7.85;;;;;;;;;;5004636;28;20391;-31
2022/02/16 13:32:38;;;;;;;132.70;8.48;;;;;;;;;;5014728;28;20046;-31
2022/02/16 13:35:24;;;;;;;96.03;7.63;;;;;;;;;;5018379;28;20100;-32
2022/02/16 13:37:59;;;;;;;129.07;8.45;;;;;;;;;;5016811;28;20499;-33
2022/02/16 13:40:27;;;;;;;69.40;6.57;;;;;;;;;;5015866;28;20088;-31
2022/02/16 13:42:55;;;;;;;58.25;4.90;;;;;;;;;;5018224;28;20030;-34
2022/02/16 13:45:30;;;;;;;56.10;3.75;;;;;;;;;;5018350;28;20372;-34
2022/02/16 13:47:57;;;;;;;39.70;3.95;;;;;;;;;;5018212;28;20026;-33
2022/02/16 13:50:28;;;;;;;68.18;4.95;;;;;;;;;;5016795;28;20033;-35
2022/02/16 13:52:55;;;;;;;51.03;4.43;;;;;;;;;;4999756;28;20395;-33
2022/02/16 13:55:22;;;;;;;36.28;3.60;;;;;;;;;;5017600;28;20056;-32
2022/02/16 13:57:50;;;;;;;82.93;6.30;;;;;;;;;;5017837;28;20050;-33
2022/02/16 14:00:21;;;;;;;46.78;4.63;;;;;;;;;;5016986;28;20034;-32
2022/02/16 14:03:05;;;;;;;49.53;4.05;;;;;;;;;;5017961;28;20034;-34
2022/02/16 14:05:32;;;;;;;48.03;3.78;;;;;;;;;;5017959;28;20048;-34
2022/02/16 14:08:01;;;;;;;35.75;3.70;;;;;;;;;;5017269;28;20053;-34
2022/02/16 14:10:28;;;;;;;44.38;4.95;;;;;;;;;;5017507;28;20492;-34
2022/02/16 14:12:55;;;;;;;38.85;2.92;;;;;;;;;;5017057;28;20041;-34
2022/02/16 14:15:26;;;;;;;49.97;4.22;;;;;;;;;;5018077;28;20089;-34
2022/02/16 14:17:53;;;;;;;39.95;3.25;;;;;;;;;;5018444;28;20053;-35
2022/02/16 14:20:21;;;;;;;75.38;4.70;;;;;;;;;;5018284;28;20468;-34
2022/02/16 14:22:49;;;;;;;51.97;4.20;;;;;;;;;;5018284;28;20036;-34
2022/02/16 14:25:16;;;;;;;32.10;3.00;;;;;;;;;;5018284;28;20041;-35
2022/02/16 14:27:44;;;;;;;28.60;2.50;;;;;;;;;;5016223;28;20474;-34
2022/02/16 14:30:14;;;;;;;35.35;2.88;;;;;;;;;;5017740;28;20029;-33
2022/02/16 14:32:41;;;;;;;25.40;2.58;;;;;;;;;;5017689;28;20048;-33
2022/02/16 14:35:08;;;;;;;35.10;3.20;;;;;;;;;;5018001;28;20084;-34
2022/02/16 14:37:37;;;;;;;39.53;3.17;;;;;;;;;;5017675;28;20034;-33
2022/02/16 14:40:06;;;;;;;25.30;2.45;;;;;;;;;;5017394;28;20033;-34